createdAt,value
2023-03-23T15:59:47.802Z,99210.53
2023-03-23T16:02:20.747Z,99215.88
2023-03-23T16:04:48.167Z,99209.88
2023-03-23T16:46:16.362Z,99202.31
2023-03-23T16:48:42.931Z,99212.59
2023-03-23T16:51:09.627Z,99201.50
2023-03-23T16:53:36.849Z,99205.84
2023-03-23T16:56:04.190Z,99196.41
2023-03-23T16:58:31.224Z,99202.44
2023-03-23T17:00:58.540Z,99208.53
2023-03-23T17:03:25.139Z,99194.81
2023-03-23T17:05:52.348Z,99197.50
2023-03-23T17:08:20.207Z,99205.28
2023-03-23T17:10:47.790Z,99205.28
2023-03-23T17:13:14.472Z,99207.03
2023-03-23T17:15:45.141Z,99202.75
2023-03-23T17:18:13.876Z,99214.84
2023-03-23T17:20:40.478Z,99209.66
2023-03-23T17:23:07.124Z,99211.41
2023-03-23T17:25:33.766Z,99213.13
2023-03-23T17:28:05.501Z,99215.69
2023-03-23T17:30:32.973Z,99221.69
2023-03-23T17:33:00.178Z,99241.59
2023-03-23T17:35:27.044Z,99239.84
2023-03-23T17:37:53.702Z,99229.53
2023-03-23T17:40:20.545Z,99239.88
2023-03-23T17:42:47.144Z,99236.47
2023-03-23T17:45:13.736Z,99244.19
2023-03-23T17:47:40.525Z,99250.22
2023-03-23T17:50:11.593Z,99247.63
2023-03-23T17:52:40.485Z,99240.75
2023-03-23T17:55:07.635Z,99247.66
2023-03-23T17:57:35.196Z,99238.19
2023-03-23T18:00:03.712Z,99251.09
2023-03-23T18:02:30.427Z,99258.84
2023-03-23T18:04:59.720Z,99262.28
2023-03-23T18:07:27.107Z,99266.56
2023-03-23T18:09:58.453Z,99267.41
2023-03-23T18:12:25.528Z,99275.16
2023-03-23T18:14:56.536Z,99263.97
2023-03-23T18:17:23.208Z,99269.97
2023-03-23T18:19:49.836Z,99264.78
2023-03-23T18:22:16.419Z,99280.28
2023-03-23T18:24:43.037Z,99281.13
2023-03-23T18:27:09.606Z,99285.44
2023-03-23T18:29:36.233Z,99273.38
2023-03-23T18:32:03.467Z,99272.50
2023-03-23T18:34:32.254Z,99275.03
2023-03-23T18:36:58.987Z,99297.38
2023-03-23T18:39:25.540Z,99297.38
2023-03-23T18:41:52.164Z,99291.34
2023-03-23T18:44:18.899Z,99290.47
2023-03-23T18:46:45.510Z,99295.63
2023-03-23T18:49:12.564Z,99287.00
2023-03-23T18:51:39.119Z,99291.28
2023-03-23T18:54:05.717Z,99286.97
2023-03-23T18:56:32.360Z,99285.25
2023-03-23T18:58:59.240Z,99274.06
2023-03-23T19:01:26.537Z,99272.31
2023-03-23T19:03:53.481Z,99266.25
2023-03-23T19:06:23.603Z,99258.53
2023-03-23T19:08:52.209Z,99250.78
2023-03-23T19:11:19.549Z,99242.22
2023-03-23T19:13:57.960Z,99234.44
2023-03-23T19:16:28.080Z,99219.84
2023-03-23T19:18:54.641Z,99200.94
2023-03-23T19:21:25.339Z,99194.91
2023-03-23T19:23:53.512Z,99181.16
2023-03-23T19:26:24.385Z,99183.72
2023-03-23T19:31:23.653Z,99175.09
2023-03-23T19:33:50.981Z,99171.63
2023-03-23T19:36:18.465Z,99169.94
2023-03-23T19:38:45.430Z,99172.50
2023-03-23T19:41:12.286Z,99166.47
2023-03-23T19:43:39.440Z,99169.94
2023-03-23T19:46:07.315Z,99164.72
2023-03-23T19:48:34.546Z,99161.31
2023-03-23T19:51:01.506Z,99154.41
2023-03-23T19:53:28.100Z,99163.84
2023-03-23T19:55:54.824Z,99156.13
2023-03-23T19:58:21.698Z,99153.53
2023-03-23T20:00:48.641Z,99149.25
2023-03-23T20:03:16.004Z,99164.72
2023-03-23T20:05:43.036Z,99164.72
2023-03-23T20:08:11.127Z,99168.13
2023-03-23T20:10:40.650Z,99162.13
2023-03-23T20:13:08.369Z,99162.97
2023-03-23T20:15:34.952Z,99161.25
2023-03-23T20:18:01.629Z,99172.38
2023-03-23T20:20:28.548Z,99168.97
2023-03-23T20:22:56.658Z,99185.31
2023-03-23T20:25:24.976Z,99175.88
2023-03-23T20:27:51.689Z,99187.03
2023-03-23T20:30:18.846Z,99192.22
2023-03-23T20:32:46.494Z,99193.91
2023-03-23T20:35:14.797Z,99209.38
2023-03-23T20:37:42.228Z,99197.31
2023-03-23T20:40:13.088Z,99206.78
2023-03-23T20:42:43.721Z,99201.59
2023-03-23T20:45:12.839Z,99199.91
2023-03-23T20:47:40.563Z,99185.31
2023-03-23T20:50:09.112Z,99187.88
2023-03-23T20:52:36.929Z,99188.72
2023-03-23T20:55:04.187Z,99181.88
2023-03-23T20:57:30.922Z,99179.28
2023-03-23T20:59:57.887Z,99164.69
2023-03-23T21:02:29.806Z,99147.50
2023-03-23T21:04:58.224Z,99139.75
2023-03-23T21:07:27.469Z,99132.88
2023-03-23T21:09:54.124Z,99137.19
2023-03-23T21:12:22.410Z,99132.03
2023-03-23T21:14:49.021Z,99130.31
2023-03-23T21:17:15.680Z,99119.16
2023-03-23T21:19:42.961Z,99115.69
2023-03-23T21:22:09.819Z,99113.13
2023-03-23T21:24:38.584Z,99087.34
2023-03-23T21:27:05.420Z,99082.19
2023-03-23T21:29:32.676Z,99071.94
2023-03-23T21:34:30.006Z,99053.00
2023-03-23T21:36:56.555Z,99027.28
2023-03-23T21:39:23.652Z,99016.94
2023-03-23T21:41:50.383Z,99009.22
2023-03-23T21:44:18.149Z,99011.81
2023-03-23T21:46:45.022Z,98989.47
2023-03-23T21:49:14.281Z,98989.50
2023-03-23T21:51:41.884Z,98980.03
2023-03-23T21:54:10.008Z,98968.88
2023-03-23T21:56:36.957Z,98967.16
2023-03-23T21:59:04.891Z,98956.88
2023-03-23T22:01:31.637Z,98947.41
2023-03-23T22:03:58.595Z,98932.84
2023-03-23T22:06:30.991Z,98925.13
2023-03-23T22:08:57.952Z,98915.66
2023-03-23T22:11:27.274Z,98907.06
2023-03-23T22:13:56.130Z,98896.78
2023-03-23T22:16:23.620Z,98881.34
2023-03-23T22:18:52.464Z,98871.91
2023-03-23T22:21:22.164Z,98867.59
2023-03-23T22:23:49.436Z,98853.88
2023-03-23T22:26:16.735Z,98854.72
2023-03-23T22:28:46.353Z,98847.00
2023-03-23T22:31:18.700Z,98853.03
2023-03-23T22:33:47.806Z,98855.59
2023-03-23T22:36:15.943Z,98854.72
2023-03-23T22:38:45.094Z,98852.16
2023-03-23T22:41:25.034Z,98865.03
2023-03-23T22:43:51.762Z,98860.75
2023-03-23T22:46:18.889Z,98863.31
2023-03-23T22:48:46.560Z,98867.63
2023-03-23T22:51:15.493Z,98870.16
2023-03-23T22:53:42.764Z,98865.03
2023-03-23T22:56:10.463Z,98860.75
2023-03-23T22:58:37.721Z,98858.19
2023-03-23T23:01:07.832Z,98870.16
2023-03-23T23:03:34.956Z,98865.91
2023-03-23T23:06:02.190Z,98855.59
2023-03-23T23:08:30.292Z,98848.72
2023-03-23T23:10:59.376Z,98837.56
2023-03-23T23:13:27.190Z,98843.56
2023-03-23T23:15:56.474Z,98839.31
2023-03-23T23:18:24.924Z,98850.44
2023-03-23T23:20:54.321Z,98847.03
2023-03-23T23:23:21.732Z,98842.72
2023-03-23T23:25:49.839Z,98851.28
2023-03-23T23:28:17.026Z,98844.44
2023-03-23T23:30:44.049Z,98828.13
2023-03-23T23:33:10.959Z,98823.88
2023-03-23T23:35:38.825Z,98804.97
2023-03-23T23:38:06.995Z,98800.72
2023-03-23T23:40:35.340Z,98804.13
2023-03-23T23:43:03.550Z,98794.69
2023-03-23T23:45:30.477Z,98798.97
2023-03-23T23:47:58.643Z,98803.28
2023-03-23T23:50:25.689Z,98800.72
2023-03-23T23:52:52.385Z,98803.28
2023-03-23T23:55:20.677Z,98796.44
2023-03-23T23:57:48.803Z,98797.28
